createdAt,value
2023-03-11T00:00:50.343Z,61.80
2023-03-11T00:03:20.457Z,61.80
2023-03-11T00:05:48.776Z,62.15
2023-03-11T00:08:19.617Z,62.08
2023-03-11T00:10:49.523Z,62.08
2023-03-11T00:13:19.803Z,62.00
2023-03-11T00:15:49.986Z,62.25
2023-03-11T00:18:19.256Z,62.24
2023-03-11T00:20:48.572Z,62.18
2023-03-11T00:23:17.143Z,62.22
2023-03-11T00:25:46.605Z,62.44
2023-03-11T00:28:16.540Z,62.36
2023-03-11T00:30:47.797Z,61.76
2023-03-11T00:33:17.715Z,61.24
2023-03-11T00:35:46.430Z,61.15
2023-03-11T00:38:17.239Z,61.51
2023-03-11T00:40:48.033Z,61.60
2023-03-11T00:43:16.974Z,61.51
2023-03-11T00:45:46.743Z,61.76
2023-03-11T00:48:15.898Z,61.19
2023-03-11T00:50:44.336Z,61.31
2023-03-11T00:53:13.358Z,61.59
2023-03-11T00:55:41.729Z,61.62
2023-03-11T00:58:13.861Z,61.66
2023-03-11T01:00:52.325Z,61.51
2023-03-11T01:03:20.737Z,61.63
2023-03-11T01:05:49.146Z,61.71
2023-03-11T01:08:17.375Z,61.54
2023-03-11T01:10:45.620Z,61.25
2023-03-11T01:13:13.985Z,61.02
2023-03-11T01:15:42.353Z,60.92
2023-03-11T01:18:12.081Z,61.06
2023-03-11T01:20:40.497Z,61.31
2023-03-11T01:23:09.649Z,61.70
2023-03-11T01:25:38.570Z,61.80
2023-03-11T01:28:08.319Z,62.04
2023-03-11T01:30:38.238Z,62.22
2023-03-11T01:33:07.481Z,62.33
2023-03-11T01:35:37.157Z,62.37
2023-03-11T01:38:05.348Z,62.44
2023-03-11T01:40:36.332Z,62.30
2023-03-11T01:43:29.145Z,62.59
2023-03-11T01:46:14.771Z,62.44
2023-03-11T01:48:48.299Z,62.89
2023-03-11T01:51:22.156Z,62.53
2023-03-11T01:53:50.737Z,62.54
2023-03-11T01:56:19.290Z,62.49
2023-03-11T01:58:52.276Z,62.52
2023-03-11T02:01:22.093Z,62.37
2023-03-11T02:03:50.944Z,62.12
2023-03-11T02:06:23.214Z,61.80
2023-03-11T02:08:52.379Z,61.71
2023-03-11T02:11:24.920Z,61.76
2023-03-11T02:13:54.719Z,61.81
2023-03-11T02:16:23.178Z,61.74
2023-03-11T02:18:52.534Z,61.57
2023-03-11T02:21:26.433Z,61.65
2023-03-11T02:24:03.772Z,61.76
2023-03-11T02:26:38.507Z,61.75
2023-03-11T02:29:10.586Z,61.72
2023-03-11T02:31:42.873Z,61.75
2023-03-11T02:34:18.858Z,61.88
2023-03-11T02:36:47.357Z,62.05
2023-03-11T02:39:16.711Z,62.37
2023-03-11T02:41:47.137Z,62.37
2023-03-11T02:44:17.515Z,62.71
2023-03-11T02:46:46.507Z,62.91
2023-03-11T02:49:16.525Z,63.01
2023-03-11T02:51:44.833Z,63.04
2023-03-11T02:54:13.260Z,63.06
2023-03-11T02:56:41.946Z,63.06
2023-03-11T02:59:10.278Z,63.13
2023-03-11T03:01:40.392Z,63.23
2023-03-11T03:04:08.878Z,63.51
2023-03-11T03:06:37.266Z,63.45
2023-03-11T03:09:06.040Z,63.40
2023-03-11T03:11:34.464Z,63.50
2023-03-11T03:14:03.032Z,63.53
2023-03-11T03:16:31.464Z,63.39
2023-03-11T03:19:01.258Z,63.44
2023-03-11T03:21:29.568Z,63.24
2023-03-11T03:23:58.168Z,63.03
2023-03-11T03:26:26.382Z,63.08
2023-03-11T03:28:54.604Z,63.18
2023-03-11T03:31:22.938Z,63.32
2023-03-11T03:33:51.712Z,63.33
2023-03-11T03:36:21.444Z,63.26
2023-03-11T03:38:56.487Z,63.33
2023-03-11T03:41:27.825Z,63.50
2023-03-11T03:43:57.022Z,63.43
2023-03-11T03:46:25.541Z,63.55
2023-03-11T03:48:57.464Z,63.73
2023-03-11T03:51:27.650Z,63.79
2023-03-11T03:54:25.243Z,64.18
2023-03-11T03:56:53.732Z,64.25
2023-03-11T03:59:22.709Z,64.34
2023-03-11T04:01:55.889Z,64.50
2023-03-11T04:04:25.745Z,64.38
2023-03-11T04:06:55.720Z,64.80
2023-03-11T04:09:24.052Z,64.68
2023-03-11T04:11:52.599Z,64.79
2023-03-11T04:14:21.109Z,64.74
2023-03-11T04:16:55.477Z,64.94
2023-03-11T04:19:24.136Z,64.99
2023-03-11T04:21:52.655Z,65.24
2023-03-11T04:24:24.260Z,65.17
2023-03-11T04:26:52.912Z,65.04
2023-03-11T04:29:22.434Z,65.19
2023-03-11T04:31:53.738Z,65.04
2023-03-11T04:34:22.207Z,64.88
2023-03-11T04:36:53.682Z,65.07
2023-03-11T04:39:25.737Z,65.09
2023-03-11T04:41:54.125Z,64.82
2023-03-11T04:44:25.528Z,64.86
2023-03-11T04:46:54.174Z,65.11
2023-03-11T04:49:22.620Z,65.17
2023-03-11T04:51:52.442Z,65.33
2023-03-11T04:54:25.001Z,65.46
2023-03-11T04:56:53.573Z,65.50
2023-03-11T04:59:22.744Z,65.46
2023-03-11T05:01:52.949Z,65.67
2023-03-11T05:04:21.258Z,65.60
2023-03-11T05:06:51.194Z,65.67
2023-03-11T05:09:20.187Z,65.85
2023-03-11T05:11:49.870Z,66.07
2023-03-11T05:14:20.497Z,66.05
2023-03-11T05:16:48.940Z,65.96
2023-03-11T05:19:35.019Z,65.85
2023-03-11T05:22:10.603Z,65.98
2023-03-11T05:24:39.698Z,65.88
2023-03-11T05:27:09.651Z,65.82
2023-03-11T05:29:39.476Z,66.11
2023-03-11T05:32:10.836Z,66.16
2023-03-11T05:34:39.450Z,66.34
2023-03-11T05:37:09.157Z,66.41
2023-03-11T05:39:38.302Z,66.39
2023-03-11T05:42:07.341Z,66.40
2023-03-11T05:44:38.056Z,66.44
2023-03-11T05:47:07.056Z,66.32
2023-03-11T05:49:36.224Z,66.60
2023-03-11T05:52:05.146Z,66.70
2023-03-11T05:54:34.345Z,66.69
2023-03-11T05:57:02.903Z,66.78
2023-03-11T05:59:35.345Z,66.64
2023-03-11T06:02:07.390Z,66.65
2023-03-11T06:04:35.827Z,66.53
2023-03-11T06:07:04.884Z,66.49
2023-03-11T06:09:37.104Z,66.52
2023-03-11T06:12:07.595Z,66.45
2023-03-11T06:14:49.254Z,66.52
2023-03-11T06:17:18.927Z,66.78
2023-03-11T06:19:47.160Z,66.57
2023-03-11T06:22:15.512Z,66.36
2023-03-11T06:24:43.836Z,66.30
2023-03-11T06:27:12.710Z,66.46
2023-03-11T06:29:42.776Z,66.54
2023-03-11T06:32:11.595Z,66.21
2023-03-11T06:34:41.233Z,66.26
2023-03-11T06:37:09.675Z,66.32
2023-03-11T06:39:38.620Z,66.29
2023-03-11T06:42:10.937Z,66.33
2023-03-11T06:44:39.921Z,66.08
2023-03-11T06:47:08.272Z,65.90
2023-03-11T06:49:44.720Z,65.62
2023-03-11T06:52:13.067Z,65.34
2023-03-11T06:54:41.446Z,65.23
2023-03-11T06:57:12.997Z,65.11
2023-03-11T06:59:41.799Z,64.80
2023-03-11T07:02:15.174Z,64.36
2023-03-11T07:04:45.956Z,64.00
2023-03-11T07:07:14.336Z,63.76
2023-03-11T07:09:42.715Z,63.62
2023-03-11T07:12:14.963Z,63.56
2023-03-11T07:14:43.466Z,63.18
2023-03-11T07:17:11.915Z,62.82
2023-03-11T07:19:48.626Z,62.63
2023-03-11T07:22:16.869Z,62.53
2023-03-11T07:24:46.764Z,62.23
2023-03-11T07:27:15.242Z,62.07
2023-03-11T07:29:43.464Z,61.76
2023-03-11T07:32:11.940Z,61.38
2023-03-11T07:34:40.378Z,61.06
2023-03-11T07:37:10.167Z,60.69
2023-03-11T07:39:40.272Z,60.47
2023-03-11T07:42:09.076Z,60.31
2023-03-11T07:44:39.194Z,60.19
2023-03-11T07:47:07.847Z,59.93
2023-03-11T07:49:39.068Z,59.53
2023-03-11T07:52:09.324Z,59.41
2023-03-11T07:54:38.266Z,59.14
2023-03-11T07:57:07.450Z,58.93
2023-03-11T07:59:35.746Z,58.87
2023-03-11T08:02:04.831Z,58.65
2023-03-11T08:04:33.108Z,58.41
2023-03-11T08:07:01.372Z,58.39
2023-03-11T08:09:31.064Z,58.41
2023-03-11T08:11:59.308Z,58.43
2023-03-11T08:14:27.614Z,58.53
2023-03-11T08:16:55.841Z,58.57
2023-03-11T08:19:24.066Z,58.99
2023-03-11T08:21:52.329Z,58.91
2023-03-11T08:24:20.546Z,58.84
2023-03-11T08:26:50.189Z,59.09
2023-03-11T08:29:18.433Z,58.77
2023-03-11T08:31:46.680Z,58.84
2023-03-11T08:34:21.512Z,59.48
2023-03-11T08:36:49.968Z,60.12
2023-03-11T08:39:18.167Z,61.24
2023-03-11T08:41:46.364Z,61.45
2023-03-11T08:44:15.972Z,63.13
2023-03-11T08:46:46.705Z,63.48
2023-03-11T08:49:14.995Z,62.68
2023-03-11T08:51:43.518Z,66.11
2023-03-11T08:54:11.738Z,67.14
2023-03-11T08:56:40.033Z,69.72
2023-03-11T08:59:08.583Z,67.58
2023-03-11T09:01:38.446Z,67.93
2023-03-11T09:04:06.971Z,69.94
2023-03-11T09:06:35.492Z,72.58
2023-03-11T09:09:03.850Z,68.58
2023-03-11T09:11:32.081Z,70.43
2023-03-11T09:14:00.303Z,69.10
2023-03-11T09:16:28.647Z,72.52
2023-03-11T09:19:00.392Z,69.71
2023-03-11T09:21:28.706Z,72.75
2023-03-11T09:23:56.955Z,72.46
2023-03-11T09:26:25.288Z,70.88
2023-03-11T09:28:53.546Z,71.54
2023-03-11T09:31:21.925Z,71.20
2023-03-11T09:33:52.781Z,69.13
2023-03-11T09:36:22.933Z,68.11
2023-03-11T09:38:51.199Z,70.80
2023-03-11T09:41:28.412Z,69.68
2023-03-11T09:44:07.229Z,69.36
2023-03-11T09:46:58.805Z,69.92
2023-03-11T09:49:40.979Z,70.53
2023-03-11T09:52:13.264Z,71.35
2023-03-11T09:54:43.727Z,71.80
2023-03-11T09:57:16.304Z,69.56
2023-03-11T09:59:46.466Z,72.13
2023-03-11T10:02:18.649Z,72.30
2023-03-11T10:04:52.840Z,72.16
2023-03-11T10:07:27.929Z,70.55
2023-03-11T10:09:58.440Z,70.54
2023-03-11T10:12:41.794Z,73.92
2023-03-11T10:15:18.931Z,73.13
2023-03-11T10:18:19.480Z,72.48
2023-03-11T10:20:55.671Z,74.40
2023-03-11T10:23:28.119Z,78.14
2023-03-11T10:26:04.148Z,73.02
2023-03-11T10:28:37.736Z,74.44
2023-03-11T10:31:21.697Z,105.73
2023-03-11T10:33:53.745Z,103.01
2023-03-11T10:36:26.545Z,105.77
2023-03-11T10:38:57.531Z,103.30
2023-03-11T10:41:44.986Z,107.66
2023-03-11T10:44:17.329Z,103.18
2023-03-11T10:46:46.146Z,108.76
2023-03-11T10:49:16.300Z,106.55
2023-03-11T10:51:48.471Z,108.05
2023-03-11T10:54:27.369Z,106.76
2023-03-11T10:56:57.807Z,105.32
2023-03-11T10:59:30.316Z,98.77
2023-03-11T11:02:00.781Z,106.47
2023-03-11T11:04:37.979Z,101.28
2023-03-11T11:07:29.238Z,105.72
2023-03-11T11:10:17.623Z,104.69
2023-03-11T11:12:54.981Z,107.90
2023-03-11T11:15:25.613Z,100.31
2023-03-11T11:17:56.604Z,106.46
2023-03-11T11:20:26.513Z,101.13
2023-03-11T11:22:57.250Z,106.86
2023-03-11T11:25:29.707Z,106.34
2023-03-11T11:28:00.133Z,106.14
2023-03-11T11:30:29.572Z,103.94
2023-03-11T11:32:58.190Z,101.03
2023-03-11T11:35:26.703Z,100.50
2023-03-11T11:38:00.989Z,103.43
2023-03-11T11:40:33.049Z,104.11
2023-03-11T11:43:05.881Z,105.20
2023-03-11T11:45:38.947Z,105.50
2023-03-11T11:48:17.345Z,104.30
2023-03-11T11:50:49.841Z,100.82
2023-03-11T11:53:28.732Z,103.45
2023-03-11T11:55:58.422Z,109.04
2023-03-11T11:58:26.786Z,104.86
2023-03-11T12:01:05.766Z,102.98
2023-03-11T12:04:03.179Z,104.72
2023-03-11T12:06:38.266Z,101.35
2023-03-11T12:09:16.033Z,99.49
2023-03-11T12:11:52.647Z,102.35
2023-03-11T12:14:25.105Z,102.61
2023-03-11T12:16:58.405Z,110.27
2023-03-11T12:19:38.183Z,104.10
2023-03-11T12:22:28.473Z,100.59
2023-03-11T12:25:32.899Z,104.97
2023-03-11T12:28:09.395Z,107.56
2023-03-11T12:30:44.873Z,105.17
2023-03-11T12:33:18.445Z,102.89
2023-03-11T12:35:53.584Z,103.88
2023-03-11T12:38:29.771Z,104.05
2023-03-11T12:41:01.419Z,104.15
2023-03-11T12:44:01.687Z,103.66
2023-03-11T12:47:11.757Z,103.36
2023-03-11T12:49:41.845Z,105.93
2023-03-11T12:52:28.695Z,106.96
2023-03-11T12:55:26.291Z,102.94
2023-03-11T12:58:23.935Z,108.55
2023-03-11T13:01:13.746Z,102.06
2023-03-11T13:04:07.964Z,99.74
2023-03-11T13:06:54.488Z,101.39
2023-03-11T13:09:22.874Z,100.89
2023-03-11T13:11:51.427Z,98.58
2023-03-11T13:14:30.913Z,104.03
2023-03-11T13:17:27.491Z,103.21
2023-03-11T13:19:57.519Z,96.94
2023-03-11T13:23:16.138Z,102.32
2023-03-11T13:25:58.801Z,100.38
2023-03-11T13:28:45.280Z,100.96
2023-03-11T13:31:30.279Z,101.30
2023-03-11T13:34:05.940Z,100.97
2023-03-11T13:36:46.132Z,101.73
2023-03-11T13:39:39.486Z,100.00
2023-03-11T13:42:18.347Z,104.66
2023-03-11T13:44:48.466Z,100.13
2023-03-11T13:47:18.617Z,100.64
2023-03-11T13:49:54.642Z,101.85
2023-03-11T13:52:28.421Z,103.28
2023-03-11T13:55:02.308Z,101.49
2023-03-11T13:57:33.908Z,101.94
2023-03-11T14:00:16.776Z,102.50
2023-03-11T14:02:51.237Z,99.17
2023-03-11T14:05:24.453Z,99.15
2023-03-11T14:07:52.877Z,101.51
2023-03-11T14:10:29.972Z,99.95
2023-03-11T14:13:16.732Z,98.84
2023-03-11T14:15:52.526Z,96.99
2023-03-11T14:18:33.126Z,99.48
2023-03-11T14:21:03.790Z,100.57
2023-03-11T14:23:40.706Z,98.70
2023-03-11T14:26:13.474Z,99.25
2023-03-11T14:28:45.205Z,101.03
2023-03-11T14:31:33.937Z,100.29
2023-03-11T14:34:06.817Z,100.41
2023-03-11T14:36:44.302Z,101.11
2023-03-11T14:39:31.127Z,99.80
2023-03-11T14:42:07.182Z,101.37
2023-03-11T14:44:39.984Z,100.33
2023-03-11T14:47:14.687Z,102.89
2023-03-11T14:49:43.890Z,100.06
2023-03-11T14:52:20.157Z,102.44
2023-03-11T14:54:50.040Z,101.87
2023-03-11T14:57:25.248Z,102.92
2023-03-11T14:59:55.602Z,106.38
2023-03-11T15:02:38.654Z,103.51
2023-03-11T15:05:12.595Z,98.98
2023-03-11T15:07:43.287Z,93.29
2023-03-11T15:10:13.039Z,91.20
2023-03-11T15:12:43.583Z,86.44
2023-03-11T15:15:24.128Z,87.99
2023-03-11T15:17:56.804Z,90.68
2023-03-11T15:20:27.904Z,90.06
2023-03-11T15:23:01.257Z,89.91
2023-03-11T15:25:33.270Z,90.41
2023-03-11T15:28:14.751Z,94.09
2023-03-11T15:30:43.277Z,91.00
2023-03-11T15:33:22.998Z,92.46
2023-03-11T15:35:51.871Z,94.81
2023-03-11T15:38:27.804Z,95.52
2023-03-11T15:40:58.602Z,95.84
2023-03-11T15:43:30.585Z,94.27
2023-03-11T15:46:00.581Z,97.90
2023-03-11T15:48:31.323Z,100.62
2023-03-11T15:51:00.958Z,97.90
2023-03-11T15:53:31.996Z,98.10
2023-03-11T15:56:07.688Z,96.49
2023-03-11T15:58:38.227Z,97.99
2023-03-11T16:01:07.451Z,99.29
2023-03-11T16:03:35.865Z,103.86
2023-03-11T16:06:04.172Z,100.16
2023-03-11T16:08:34.676Z,100.50
2023-03-11T16:11:03.042Z,97.77
2023-03-11T16:13:31.254Z,101.29
2023-03-11T16:15:59.650Z,99.70
2023-03-11T16:18:27.925Z,104.73
2023-03-11T16:20:56.631Z,100.39
2023-03-11T16:23:27.234Z,104.89
2023-03-11T16:25:59.731Z,101.85
2023-03-11T16:28:28.121Z,98.56
2023-03-11T16:30:56.529Z,98.47
2023-03-11T16:33:24.896Z,101.53
2023-03-11T16:35:53.161Z,99.82
2023-03-11T16:38:23.194Z,100.40
2023-03-11T16:40:58.910Z,103.54
2023-03-11T16:43:27.774Z,96.33
2023-03-11T16:45:56.209Z,102.94
2023-03-11T16:48:24.957Z,101.06
2023-03-11T16:50:53.295Z,104.28
2023-03-11T16:53:22.008Z,97.16
2023-03-11T16:55:50.372Z,100.38
2023-03-11T16:58:20.014Z,103.29
2023-03-11T17:00:48.687Z,99.93
2023-03-11T17:03:21.543Z,94.79
2023-03-11T17:05:50.831Z,97.62
2023-03-11T17:08:19.263Z,94.69
2023-03-11T17:10:47.612Z,96.27
2023-03-11T17:13:18.997Z,97.06
2023-03-11T17:15:58.282Z,95.44
2023-03-11T17:18:27.088Z,90.90
2023-03-11T17:20:55.619Z,94.53
2023-03-11T17:23:24.392Z,96.05
2023-03-11T17:25:52.670Z,98.00
2023-03-11T17:28:20.972Z,94.58
2023-03-11T17:30:50.684Z,92.96
2023-03-11T17:33:18.929Z,94.04
2023-03-11T17:35:47.413Z,91.22
2023-03-11T17:38:16.661Z,91.34
2023-03-11T17:40:45.057Z,93.82
2023-03-11T17:43:13.280Z,98.20
2023-03-11T17:45:42.137Z,89.02
2023-03-11T17:48:11.799Z,92.22
2023-03-11T17:50:40.224Z,89.79
2023-03-11T17:53:09.288Z,88.54
2023-03-11T17:55:41.370Z,87.84
2023-03-11T17:58:09.678Z,92.26
2023-03-11T18:00:39.276Z,91.65
2023-03-11T18:03:07.520Z,88.59
2023-03-11T18:05:38.105Z,87.28
2023-03-11T18:08:06.732Z,90.18
2023-03-11T18:10:34.966Z,90.69
2023-03-11T18:13:03.207Z,88.97
2023-03-11T18:15:31.684Z,89.46
2023-03-11T18:18:00.001Z,89.28
2023-03-11T18:20:28.247Z,91.84
2023-03-11T18:22:57.946Z,90.47
2023-03-11T18:25:26.233Z,90.86
2023-03-11T18:27:54.506Z,87.67
2023-03-11T18:30:23.100Z,86.18
2023-03-11T18:32:51.389Z,87.91
2023-03-11T18:35:19.661Z,85.93
2023-03-11T18:37:47.923Z,86.08
2023-03-11T18:40:17.728Z,86.95
2023-03-11T18:42:45.975Z,86.96
2023-03-11T18:45:14.495Z,83.53
2023-03-11T18:47:43.103Z,86.91
2023-03-11T18:50:12.773Z,85.98
2023-03-11T18:52:41.788Z,86.86
2023-03-11T18:55:10.444Z,87.54
2023-03-11T18:57:43.170Z,85.86
2023-03-11T19:00:12.928Z,86.45
2023-03-11T19:02:42.156Z,88.99
2023-03-11T19:05:10.893Z,89.92
2023-03-11T19:07:40.068Z,88.89
2023-03-11T19:10:09.017Z,89.78
2023-03-11T19:12:39.985Z,91.72
2023-03-11T19:15:09.261Z,93.09
2023-03-11T19:17:37.954Z,92.87
2023-03-11T19:20:08.830Z,86.85
2023-03-11T19:22:37.548Z,91.34
2023-03-11T19:25:06.689Z,90.18
2023-03-11T19:27:35.607Z,90.41
2023-03-11T19:30:06.165Z,94.94
2023-03-11T19:32:35.004Z,95.76
2023-03-11T19:35:03.217Z,91.98
2023-03-11T19:37:31.834Z,90.53
2023-03-11T19:40:00.119Z,86.43
2023-03-11T19:42:28.425Z,96.94
2023-03-11T19:44:56.684Z,100.64
2023-03-11T19:47:26.383Z,99.26
2023-03-11T19:49:54.685Z,99.19
2023-03-11T19:52:23.431Z,99.03
2023-03-11T19:54:51.966Z,100.01
2023-03-11T19:57:20.245Z,99.35
2023-03-11T19:59:48.556Z,100.58
2023-03-11T20:02:16.891Z,97.58
2023-03-11T20:04:46.741Z,99.24
2023-03-11T20:07:14.994Z,96.13
2023-03-11T20:09:43.509Z,96.24
2023-03-11T20:12:11.759Z,99.34
2023-03-11T20:14:44.338Z,100.16
2023-03-11T20:17:14.091Z,98.35
2023-03-11T20:19:43.390Z,101.03
2023-03-11T20:22:13.422Z,100.04
2023-03-11T20:24:42.566Z,99.05
2023-03-11T20:27:10.843Z,100.48
2023-03-11T20:29:39.656Z,101.61
2023-03-11T20:32:08.029Z,102.02
2023-03-11T20:34:36.367Z,101.83
2023-03-11T20:37:04.631Z,100.86
2023-03-11T20:39:34.266Z,101.40
2023-03-11T20:42:02.582Z,95.99
2023-03-11T20:44:30.813Z,101.97
2023-03-11T20:46:59.140Z,99.83
2023-03-11T20:49:27.470Z,98.68
2023-03-11T20:51:55.768Z,96.88
2023-03-11T20:54:24.137Z,100.48
2023-03-11T20:56:53.874Z,100.78
2023-03-11T20:59:22.263Z,99.58
2023-03-11T21:01:50.584Z,101.21
2023-03-11T21:04:19.002Z,99.22
2023-03-11T21:06:49.817Z,101.69
2023-03-11T21:09:18.149Z,101.39
2023-03-11T21:11:46.727Z,101.17
2023-03-11T21:14:18.555Z,100.68
2023-03-11T21:16:47.233Z,103.83
2023-03-11T21:19:15.578Z,104.19
2023-03-11T21:21:44.299Z,104.18
2023-03-11T21:24:13.468Z,102.25
2023-03-11T21:26:42.662Z,103.18
2023-03-11T21:29:11.096Z,102.22
2023-03-11T21:31:41.386Z,101.86
2023-03-11T21:34:11.764Z,100.65
2023-03-11T21:36:40.161Z,101.01
2023-03-11T21:39:08.687Z,101.89
2023-03-11T21:41:37.022Z,100.61
2023-03-11T21:44:05.429Z,96.89
2023-03-11T21:46:34.033Z,100.96
2023-03-11T21:49:03.991Z,102.13
2023-03-11T21:51:32.358Z,101.07
2023-03-11T21:54:00.825Z,101.36
2023-03-11T21:56:30.088Z,101.22
2023-03-11T21:58:58.577Z,99.44
2023-03-11T22:01:27.439Z,100.90
2023-03-11T22:03:56.657Z,101.22
2023-03-11T22:06:26.543Z,100.33
2023-03-11T22:08:55.004Z,102.19
2023-03-11T22:11:23.283Z,103.06
2023-03-11T22:13:54.091Z,97.99
2023-03-11T22:16:23.441Z,101.15
2023-03-11T22:18:53.127Z,101.09
2023-03-11T22:21:21.789Z,100.52
2023-03-11T22:23:51.723Z,100.33
2023-03-11T22:26:20.265Z,100.67
2023-03-11T22:28:48.564Z,97.94
2023-03-11T22:31:18.628Z,98.09
2023-03-11T22:33:47.717Z,96.22
2023-03-11T22:36:16.116Z,100.85
2023-03-11T22:38:45.020Z,100.36
2023-03-11T22:41:16.847Z,100.36
2023-03-11T22:43:45.105Z,99.16
2023-03-11T22:46:13.594Z,100.86
2023-03-11T22:48:41.980Z,98.33
2023-03-11T22:51:10.368Z,97.30
2023-03-11T22:53:39.309Z,97.95
2023-03-11T22:56:09.102Z,96.15
2023-03-11T22:58:39.798Z,95.69
2023-03-11T23:01:08.614Z,96.24
2023-03-11T23:03:37.327Z,97.79
2023-03-11T23:06:08.833Z,98.04
2023-03-11T23:08:37.579Z,94.47
2023-03-11T23:11:09.367Z,96.12
2023-03-11T23:13:40.550Z,95.59
2023-03-11T23:16:11.020Z,93.95
2023-03-11T23:18:40.146Z,95.75
2023-03-11T23:21:15.884Z,90.73
2023-03-11T23:23:44.242Z,93.04
2023-03-11T23:26:13.877Z,93.08
2023-03-11T23:28:44.260Z,92.35
2023-03-11T23:31:14.604Z,92.03
2023-03-11T23:33:43.071Z,94.95
2023-03-11T23:36:13.621Z,92.93
2023-03-11T23:38:42.062Z,91.73
2023-03-11T23:41:11.880Z,92.16
2023-03-11T23:43:40.769Z,92.75
2023-03-11T23:46:11.209Z,94.21
2023-03-11T23:48:40.890Z,94.38
2023-03-11T23:51:09.739Z,93.49
2023-03-11T23:53:39.428Z,93.79
2023-03-11T23:56:13.568Z,93.35
2023-03-11T23:58:42.145Z,94.70
